Time;durP1;ratioP1;P1;durP2;ratioP2;P2;SDS_P1;SDS_P2;PMS_P1;PMS_P2;Temp;Humidity;BMP_temperature;BMP_pressure;BME280_temperature;BME280_humidity;BME280_pressure;Samples;Min_cycle;Max_cycle;Signal;HPM_P1;HPM_P2
2021/12/04 00:03:41;;;;;;;;;;;4.30;99.90;;;;;;10370287;28;84216;-53
2021/12/04 00:08:44;;;;;;;;;;;4.30;99.90;;;;;;10370569;28;84891;-54
2021/12/04 00:13:44;;;;;;;;;;;4.30;99.90;;;;;;10369508;28;84084;-53
2021/12/04 00:18:45;;;;;;;;;;;4.30;99.90;;;;;;10370588;28;84974;-52
2021/12/04 00:23:45;;;;;;;;;;;4.30;99.90;;;;;;10368670;28;84133;-57
2021/12/04 00:28:46;;;;;;;;;;;4.40;99.90;;;;;;10370067;28;84082;-52
2021/12/04 00:33:48;;;;;;;;;;;4.40;99.90;;;;;;10369808;28;84917;-54
2021/12/04 00:49:27;;;;;;;;;;;4.60;99.90;;;;;;10328749;28;84926;-52
2021/12/04 00:54:28;;;;;;;;;;;4.50;99.90;;;;;;10328604;28;84732;-53
2021/12/04 00:59:31;;;;;;;;;;;4.50;99.90;;;;;;10328974;28;84035;-52
2021/12/04 01:04:32;;;;;;;;;;;4.60;99.90;;;;;;10329575;28;84923;-57
2021/12/04 01:09:33;;;;;;;;;;;4.50;99.90;;;;;;10329512;28;84078;-58
2021/12/04 01:14:33;;;;;;;;;;;4.60;99.90;;;;;;10330576;28;84119;-56
2021/12/04 01:19:34;;;;;;;;;;;4.60;99.90;;;;;;10330245;28;84003;-56
2021/12/04 01:24:34;;;;;;;;;;;4.50;99.90;;;;;;10330697;28;84868;-55
2021/12/04 01:29:35;;;;;;;;;;;4.60;99.90;;;;;;10330180;28;84719;-56
2021/12/04 01:34:36;;;;;;;;;;;4.70;99.90;;;;;;10328356;28;85685;-55
2021/12/04 01:39:36;;;;;;;;;;;4.80;99.90;;;;;;10316011;28;84937;-51
2021/12/04 01:44:37;;;;;;;;;;;4.70;99.90;;;;;;10317397;28;84181;-52
2021/12/04 01:49:37;;;;;;;;;;;4.70;99.90;;;;;;10328897;28;84902;-55
2021/12/04 01:54:38;;;;;;;;;;;4.50;99.90;;;;;;10329788;28;84952;-53
2021/12/04 01:59:39;;;;;;;;;;;4.60;99.90;;;;;;10329095;28;83954;-53
2021/12/04 02:04:39;;;;;;;;;;;4.70;99.90;;;;;;10330487;28;84153;-53
2021/12/04 02:09:40;;;;;;;;;;;4.60;99.90;;;;;;10334554;28;84931;-54
2021/12/04 02:14:41;;;;;;;;;;;4.60;99.90;;;;;;10334685;28;84144;-52
2021/12/04 02:19:44;;;;;;;;;;;4.60;99.90;;;;;;10333762;28;84277;-56
2021/12/04 02:24:45;;;;;;;;;;;4.60;99.90;;;;;;10333888;28;84810;-51
2021/12/04 02:29:49;;;;;;;;;;;4.60;99.90;;;;;;10333266;28;84780;-51
2021/12/04 02:34:49;;;;;;;;;;;4.60;99.90;;;;;;10332993;28;84736;-52
2021/12/04 02:39:57;;;;;;;;;;;4.60;99.90;;;;;;10332877;28;84815;-56
2021/12/04 02:44:59;;;;;;;;;;;4.70;99.90;;;;;;10333314;28;84033;-51
2021/12/04 02:50:04;;;;;;;;;;;4.60;99.90;;;;;;10332655;28;84243;-56
2021/12/04 02:55:06;;;;;;;;;;;4.70;99.90;;;;;;10332929;28;84734;-51
2021/12/04 03:00:08;;;;;;;;;;;4.70;99.90;;;;;;10330950;28;86019;-51
2021/12/04 03:05:10;;;;;;;;;;;4.70;99.90;;;;;;10331999;28;86989;-52
2021/12/04 03:10:11;;;;;;;;;;;4.70;99.90;;;;;;10332157;28;84226;-54
2021/12/04 03:15:12;;;;;;;;;;;4.70;99.90;;;;;;10333060;28;84736;-51
2021/12/04 03:20:12;;;;;;;;;;;4.60;99.90;;;;;;10332384;28;84349;-51
2021/12/04 03:25:16;;;;;;;;;;;4.50;99.90;;;;;;10323514;28;84797;-56
2021/12/04 03:30:42;;;;;;;;;;;4.50;99.90;;;;;;10304395;28;84417;-56
2021/12/04 03:45:46;;;;;;;;;;;4.50;99.90;;;;;;10330768;28;84094;-51
2021/12/04 03:50:47;;;;;;;;;;;4.50;99.90;;;;;;10330687;28;84070;-52
2021/12/04 03:55:49;;;;;;;;;;;4.50;99.90;;;;;;10322357;28;84053;-56
2021/12/04 04:00:50;;;;;;;;;;;4.40;99.90;;;;;;10330451;28;84165;-55
2021/12/04 04:05:51;;;;;;;;;;;4.50;99.90;;;;;;10329944;28;84099;-51
2021/12/04 04:10:53;;;;;;;;;;;4.50;99.90;;;;;;10330037;28;84802;-56
2021/12/04 04:15:54;;;;;;;;;;;4.40;99.90;;;;;;10330034;28;84090;-56
2021/12/04 04:20:54;;;;;;;;;;;4.30;99.90;;;;;;10330648;28;86310;-54
2021/12/04 04:25:55;;;;;;;;;;;4.30;99.90;;;;;;10313652;28;87091;-54
2021/12/04 04:30:55;;;;;;;;;;;4.20;99.90;;;;;;10328997;28;84044;-56
2021/12/04 04:36:08;;;;;;;;;;;4.30;99.90;;;;;;10329276;28;84199;-51
2021/12/04 05:12:56;;;;;;;;;;;4.60;99.90;;;;;;10328149;28;84827;-51
2021/12/04 05:18:08;;;;;;;;;;;4.60;99.90;;;;;;10306340;28;84774;-55
2021/12/04 05:23:10;;;;;;;;;;;4.70;99.90;;;;;;10312693;28;85078;-53
2021/12/04 05:28:11;;;;;;;;;;;4.80;99.90;;;;;;10297215;28;84753;-54
2021/12/04 05:33:11;;;;;;;;;;;4.90;99.90;;;;;;10287218;28;84245;-55
2021/12/04 05:38:12;;;;;;;;;;;4.90;99.90;;;;;;10312606;28;84844;-54
2021/12/04 05:43:13;;;;;;;;;;;4.90;99.90;;;;;;10334157;28;84847;-53
2021/12/04 05:48:19;;;;;;;;;;;4.90;99.90;;;;;;10334933;28;84221;-56
2021/12/04 05:53:40;;;;;;;;;;;5.00;99.90;;;;;;10326856;28;84267;-55
2021/12/04 05:58:40;;;;;;;;;;;5.00;99.90;;;;;;10334341;28;84863;-53
2021/12/04 06:03:41;;;;;;;;;;;5.00;99.90;;;;;;10335201;28;84346;-55
2021/12/04 06:08:41;;;;;;;;;;;5.00;99.90;;;;;;10324933;28;84512;-56
2021/12/04 06:13:42;;;;;;;;;;;4.90;99.90;;;;;;10315898;28;84289;-58
2021/12/04 06:18:46;;;;;;;;;;;5.00;99.90;;;;;;10309916;28;84257;-54
2021/12/04 06:23:47;;;;;;;;;;;5.00;99.90;;;;;;10309719;28;84206;-54
2021/12/04 06:28:47;;;;;;;;;;;5.10;99.90;;;;;;10317024;28;84949;-53
2021/12/04 06:33:48;;;;;;;;;;;5.10;99.90;;;;;;10318866;28;84758;-56
2021/12/04 06:38:48;;;;;;;;;;;5.10;99.90;;;;;;10323794;28;84658;-55
2021/12/04 06:43:51;;;;;;;;;;;5.10;99.90;;;;;;10367776;22;84976;-54
2021/12/04 06:54:06;;;;;;;;;;;5.10;99.90;;;;;;10362305;28;85947;-55
2021/12/04 06:59:10;;;;;;;;;;;5.10;99.90;;;;;;10362575;28;86256;-49
2021/12/04 07:04:11;;;;;;;;;;;5.10;99.90;;;;;;10370611;28;84831;-53
2021/12/04 07:09:12;;;;;;;;;;;5.10;99.90;;;;;;10371460;28;84154;-55
2021/12/04 07:14:12;;;;;;;;;;;5.10;99.90;;;;;;10371199;28;84339;-55
2021/12/04 07:19:13;;;;;;;;;;;5.10;99.90;;;;;;10371292;28;84115;-55
2021/12/04 07:24:14;;;;;;;;;;;5.20;99.90;;;;;;10369653;28;85528;-55
2021/12/04 07:29:14;;;;;;;;;;;5.10;99.90;;;;;;10369014;28;86803;-56
2021/12/04 07:34:15;;;;;;;;;;;5.10;99.90;;;;;;10371010;28;84735;-52
2021/12/04 07:39:15;;;;;;;;;;;5.10;99.90;;;;;;10358097;28;84435;-55
2021/12/04 07:44:16;;;;;;;;;;;5.10;99.90;;;;;;10346486;28;85014;-56
2021/12/04 07:49:17;;;;;;;;;;;5.10;99.90;;;;;;10344779;28;85086;-59
2021/12/04 07:54:17;;;;;;;;;;;5.10;99.90;;;;;;10355654;28;84911;-59
2021/12/04 07:59:18;;;;;;;;;;;4.90;99.90;;;;;;10360233;28;84255;-56
2021/12/04 08:04:19;;;;;;;;;;;4.90;99.90;;;;;;10346064;28;84215;-56
2021/12/04 08:09:20;;;;;;;;;;;4.80;99.90;;;;;;10359903;28;84102;-53
2021/12/04 08:14:20;;;;;;;;;;;4.80;99.90;;;;;;10355863;28;84113;-54
2021/12/04 08:19:21;;;;;;;;;;;5.00;99.90;;;;;;10364278;28;86456;-60
2021/12/04 08:24:21;;;;;;;;;;;5.10;99.90;;;;;;10365637;28;86079;-56
2021/12/04 08:29:22;;;;;;;;;;;5.20;99.90;;;;;;10371969;28;85037;-56
2021/12/04 08:34:24;;;;;;;;;;;5.20;99.90;;;;;;10367956;28;84732;-55
2021/12/04 08:39:24;;;;;;;;;;;5.20;99.90;;;;;;10352838;28;84382;-53
2021/12/04 08:44:25;;;;;;;;;;;5.30;99.90;;;;;;10321131;28;84974;-51
2021/12/04 08:49:26;;;;;;;;;;;5.20;99.90;;;;;;10335223;28;84148;-54
2021/12/04 08:54:27;;;;;;;;;;;5.40;99.90;;;;;;10355713;28;84287;-49
2021/12/04 08:59:29;;;;;;;;;;;5.40;99.90;;;;;;10345603;28;84171;-45
2021/12/04 09:04:31;;;;;;;;;;;5.40;99.90;;;;;;10348263;28;84906;-49
2021/12/04 09:09:32;;;;;;;;;;;5.50;99.90;;;;;;10347423;28;84716;-64
2021/12/04 09:14:35;;;;;;;;;;;5.50;99.90;;;;;;10350528;28;86391;-55
2021/12/04 09:19:35;;;;;;;;;;;5.50;99.90;;;;;;10345778;28;85177;-54
2021/12/04 09:24:41;;;;;;;;;;;5.60;99.90;;;;;;10363785;28;84124;-53
2021/12/04 10:18:14;;;;;;;;;;;6.20;99.90;;;;;;10355624;28;84124;-55
2021/12/04 10:34:07;;;;;;;;;;;6.50;99.90;;;;;;10347393;28;84239;-52
2021/12/04 10:39:09;;;;;;;;;;;6.50;99.90;;;;;;10345036;28;84309;-53
2021/12/04 10:44:11;;;;;;;;;;;6.70;99.90;;;;;;10360469;28;84091;-52
2021/12/04 10:49:17;;;;;;;;;;;7.00;99.90;;;;;;10366505;28;85871;-56
2021/12/04 10:54:31;;;;;;;;;;;7.00;99.90;;;;;;10367643;28;85778;-48
2021/12/04 11:00:35;;;;;;;;;;;6.80;99.90;;;;;;10368656;28;84819;-48
2021/12/04 11:05:39;;;;;;;;;;;6.80;99.90;;;;;;10364197;28;84796;-50
2021/12/04 11:42:36;;;;;;;;;;;6.60;99.90;;;;;;10360297;28;85263;-61
2021/12/04 11:47:38;;;;;;;;;;;6.80;99.90;;;;;;10370868;28;85238;-60
2021/12/04 11:52:44;;;;;;;;;;;6.90;99.90;;;;;;10371128;28;84529;-60
2021/12/04 11:57:46;;;;;;;;;;;6.90;99.90;;;;;;10363894;28;84257;-60
2021/12/04 12:02:47;;;;;;;;;;;6.80;99.90;;;;;;10354794;28;85437;-56
2021/12/04 12:07:54;;;;;;;;;;;6.80;99.90;;;;;;10351371;28;86057;-53
2021/12/04 12:13:04;;;;;;;;;;;6.60;99.90;;;;;;10352294;28;85423;-48
2021/12/04 12:18:18;;;;;;;;;;;6.50;99.90;;;;;;10343962;28;84287;-48
2021/12/04 12:23:23;;;;;;;;;;;6.50;99.90;;;;;;10340669;28;84929;-47
2021/12/04 12:38:56;;;;;;;;;;;6.70;99.90;;;;;;10366123;28;84839;-47
2021/12/04 12:44:08;;;;;;;;;;;6.80;99.90;;;;;;10355766;28;84444;-50
2021/12/04 12:49:18;;;;;;;;;;;6.70;99.90;;;;;;10341789;28;84919;-47
2021/12/04 12:54:27;;;;;;;;;;;6.80;99.90;;;;;;10351306;28;84426;-47
2021/12/04 12:59:38;;;;;;;;;;;6.80;99.90;;;;;;10357835;28;84979;-51
2021/12/04 13:15:30;;;;;;;;;;;7.00;99.90;;;;;;10334294;28;84009;-47
2021/12/04 13:20:31;;;;;;;;;;;6.90;99.90;;;;;;10353616;28;84168;-50
2021/12/04 13:25:31;;;;;;;;;;;6.70;99.90;;;;;;10362361;28;84837;-47
2021/12/04 13:30:42;;;;;;;;;;;6.80;99.90;;;;;;10360844;28;84872;-46
2021/12/04 13:35:46;;;;;;;;;;;6.70;99.90;;;;;;10375166;28;84917;-49
2021/12/04 13:40:49;;;;;;;;;;;6.60;99.90;;;;;;10354207;28;84825;-49
2021/12/04 13:45:57;;;;;;;;;;;6.60;99.90;;;;;;10361434;28;84234;-47
2021/12/04 13:50:59;;;;;;;;;;;6.80;99.90;;;;;;10362890;28;86660;-47
2021/12/04 13:56:10;;;;;;;;;;;6.80;99.90;;;;;;10362281;28;84881;-45
2021/12/04 14:01:12;;;;;;;;;;;6.80;99.90;;;;;;10360638;28;84266;-54
2021/12/04 14:06:14;;;;;;;;;;;6.70;99.90;;;;;;10357710;28;84663;-48
2021/12/04 14:11:15;;;;;;;;;;;6.80;99.90;;;;;;10371789;28;84243;-45
2021/12/04 14:16:22;;;;;;;;;;;6.50;99.90;;;;;;10378903;28;86638;-49
2021/12/04 14:21:22;;;;;;;;;;;6.40;99.90;;;;;;10354199;28;84748;-45
2021/12/04 14:26:23;;;;;;;;;;;6.40;99.90;;;;;;10360919;28;84250;-47
2021/12/04 14:31:23;;;;;;;;;;;6.30;99.90;;;;;;10357140;28;85329;-45
2021/12/04 14:36:26;;;;;;;;;;;6.40;99.90;;;;;;10386318;28;85508;-50
2021/12/04 14:41:29;;;;;;;;;;;6.30;99.90;;;;;;10369867;28;85039;-46
2021/12/04 14:46:29;;;;;;;;;;;6.40;99.90;;;;;;10371953;28;84265;-47
2021/12/04 14:51:30;;;;;;;;;;;6.40;99.90;;;;;;10372138;28;84945;-47
2021/12/04 14:56:31;;;;;;;;;;;6.40;99.90;;;;;;10370649;28;85162;-45
2021/12/04 15:01:33;;;;;;;;;;;6.50;99.90;;;;;;10372915;28;84245;-46
2021/12/04 15:06:36;;;;;;;;;;;6.20;99.90;;;;;;10372053;28;84811;-46
2021/12/04 15:11:39;;;;;;;;;;;6.10;99.90;;;;;;10365645;28;87001;-49
2021/12/04 15:16:48;;;;;;;;;;;6.00;99.90;;;;;;10355189;28;85110;-47
2021/12/04 15:21:53;;;;;;;;;;;5.90;99.90;;;;;;10368206;28;84164;-57
2021/12/04 15:26:55;;;;;;;;;;;5.90;99.90;;;;;;10358874;28;85280;-48
2021/12/04 15:31:58;;;;;;;;;;;6.00;99.90;;;;;;10351476;28;84283;-49
2021/12/04 15:37:03;;;;;;;;;;;6.00;99.90;;;;;;10362943;28;84109;-46
2021/12/04 15:42:27;;;;;;;;;;;6.00;99.90;;;;;;10349022;28;85305;-44
2021/12/04 15:47:44;;;;;;;;;;;6.00;99.90;;;;;;10357780;28;86219;-45
2021/12/04 15:58:00;;;;;;;;;;;6.00;99.90;;;;;;10360651;28;84799;-48
2021/12/04 16:03:02;;;;;;;;;;;6.00;99.90;;;;;;10367355;28;85138;-52
2021/12/04 16:08:06;;;;;;;;;;;6.00;99.90;;;;;;10360413;28;84924;-49
2021/12/04 16:13:08;;;;;;;;;;;6.00;99.90;;;;;;10348528;28;84509;-49
2021/12/04 16:18:09;;;;;;;;;;;6.10;99.90;;;;;;10358652;28;84278;-49
2021/12/04 16:23:10;;;;;;;;;;;6.10;99.90;;;;;;10366970;28;84746;-50
2021/12/04 16:33:38;;;;;;;;;;;6.00;99.90;;;;;;10360744;28;84871;-50
2021/12/04 16:38:39;;;;;;;;;;;6.00;99.90;;;;;;10352506;28;86657;-47
2021/12/04 16:43:41;;;;;;;;;;;6.00;99.90;;;;;;10341816;28;84906;-47
2021/12/04 16:48:45;;;;;;;;;;;6.10;99.90;;;;;;10357999;28;84446;-48
2021/12/04 16:59:24;;;;;;;;;;;6.20;99.90;;;;;;10339706;28;84907;-48
2021/12/04 17:04:26;;;;;;;;;;;6.10;99.90;;;;;;10336710;28;84928;-48
2021/12/04 17:09:27;;;;;;;;;;;6.10;99.90;;;;;;10344919;28;84922;-48
2021/12/04 17:14:32;;;;;;;;;;;6.10;99.90;;;;;;10350016;28;84069;-47
2021/12/04 17:19:32;;;;;;;;;;;6.00;99.90;;;;;;10348818;28;84404;-47
2021/12/04 17:24:33;;;;;;;;;;;6.00;99.90;;;;;;10348878;28;84971;-51
2021/12/04 17:29:34;;;;;;;;;;;6.00;99.90;;;;;;10344020;28;84274;-47
2021/12/04 17:34:35;;;;;;;;;;;6.10;99.90;;;;;;10359368;28;84419;-52
2021/12/04 17:39:35;;;;;;;;;;;6.00;99.90;;;;;;10346185;28;85364;-51
2021/12/04 17:44:37;;;;;;;;;;;6.00;99.90;;;;;;10358136;28;84764;-48
2021/12/04 17:49:38;;;;;;;;;;;6.20;99.90;;;;;;10365968;28;84155;-47
2021/12/04 17:54:38;;;;;;;;;;;6.00;99.90;;;;;;10361295;28;84289;-50
2021/12/04 17:59:39;;;;;;;;;;;6.00;99.90;;;;;;10365717;28;84241;-54
2021/12/04 18:04:44;;;;;;;;;;;5.90;99.90;;;;;;10367677;28;84886;-53
2021/12/04 18:09:46;;;;;;;;;;;6.00;99.90;;;;;;10374659;28;84151;-59
2021/12/04 18:14:48;;;;;;;;;;;6.00;99.90;;;;;;10372125;28;84886;-56
2021/12/04 18:19:49;;;;;;;;;;;6.00;99.90;;;;;;10362683;28;85749;-51
2021/12/04 18:24:50;;;;;;;;;;;6.00;99.90;;;;;;10369147;28;84171;-52
2021/12/04 18:29:51;;;;;;;;;;;6.00;99.90;;;;;;10371358;28;84124;-55
2021/12/04 18:34:51;;;;;;;;;;;6.10;99.90;;;;;;10354905;28;84971;-54
2021/12/04 18:39:52;;;;;;;;;;;6.10;99.90;;;;;;10371166;28;84905;-56
2021/12/04 18:44:52;;;;;;;;;;;6.10;99.90;;;;;;10367413;28;84573;-53
2021/12/04 18:49:53;;;;;;;;;;;6.00;99.90;;;;;;10360279;28;86907;-52
2021/12/04 18:54:53;;;;;;;;;;;6.10;99.90;;;;;;10358450;28;85895;-53
2021/12/04 18:59:54;;;;;;;;;;;6.10;99.90;;;;;;10360266;28;84796;-45
2021/12/04 19:04:54;;;;;;;;;;;6.20;99.90;;;;;;10343390;28;85116;-52
2021/12/04 19:09:55;;;;;;;;;;;6.20;99.90;;;;;;10358944;28;85146;-47
2021/12/04 19:14:56;;;;;;;;;;;6.30;99.90;;;;;;10335720;28;84811;-48
2021/12/04 19:19:57;;;;;;;;;;;6.30;99.90;;;;;;10340636;28;84109;-47
2021/12/04 19:24:58;;;;;;;;;;;6.30;99.90;;;;;;10351637;28;85753;-46
2021/12/04 19:29:59;;;;;;;;;;;6.20;99.90;;;;;;10352704;28;84223;-47
2021/12/04 19:50:52;;;;;;;;;;;5.90;99.90;;;;;;10368915;28;84496;-47
2021/12/04 19:56:01;;;;;;;;;;;5.70;99.90;;;;;;10356869;28;84253;-48
2021/12/04 20:01:08;;;;;;;;;;;5.70;99.90;;;;;;10361986;28;87487;-48
2021/12/04 20:16:29;;;;;;;;;;;5.70;99.90;;;;;;10356558;28;85681;-48
2021/12/04 20:21:34;;;;;;;;;;;5.70;99.90;;;;;;10363778;28;84835;-53
2021/12/04 20:26:44;;;;;;;;;;;5.80;99.90;;;;;;10353651;28;84324;-48
2021/12/04 21:09:01;;;;;;;;;;;6.10;99.90;;;;;;10364729;28;84328;-48
2021/12/04 21:51:28;;;;;;;;;;;6.00;99.90;;;;;;10335283;28;84845;-52
2021/12/04 22:59:29;;;;;;;;;;;5.40;99.90;;;;;;10274260;28;84053;-50
2021/12/04 23:15:07;;;;;;;;;;;5.60;99.90;;;;;;10269297;28;86021;-52
2021/12/04 23:36:45;;;;;;;;;;;5.60;99.90;;;;;;10276381;28;84427;-51
2021/12/04 23:41:57;;;;;;;;;;;5.50;99.90;;;;;;10280669;28;84176;-53
